createdAt,value
2022-09-05T00:01:27.843Z,62.36
2022-09-05T00:04:25.302Z,62.66
2022-09-05T00:07:59.067Z,63.19
2022-09-05T00:11:39.767Z,62.51
2022-09-05T00:13:49.818Z,62.90
2022-09-05T00:16:25.132Z,62.52
2022-09-05T00:24:17.584Z,62.88
2022-09-05T00:24:32.142Z,63.01
2022-09-05T00:25:41.133Z,62.96
2022-09-05T00:34:47.304Z,63.13
2022-09-05T00:37:47.757Z,63.62
2022-09-05T00:40:35.853Z,63.68
2022-09-05T00:43:13.595Z,64.09
2022-09-05T00:45:51.445Z,63.93
2022-09-05T00:48:50.719Z,64.26
2022-09-05T00:51:43.308Z,63.80
2022-09-05T00:54:28.330Z,64.11
2022-09-05T00:57:36.321Z,64.34
2022-09-05T01:00:33.989Z,64.23
2022-09-05T01:03:26.379Z,63.56
2022-09-05T01:06:31.744Z,64.19
2022-09-05T01:09:12.219Z,64.12
2022-09-05T01:12:06.709Z,64.15
2022-09-05T01:14:49.445Z,64.02
2022-09-05T01:17:35.353Z,64.73
2022-09-05T01:23:08.743Z,64.94
2022-09-05T01:26:11.172Z,65.12
2022-09-05T01:29:16.603Z,65.27
2022-09-05T01:32:00.442Z,64.58
2022-09-05T01:34:51.318Z,65.60
2022-09-05T01:37:33.587Z,65.33
2022-09-05T01:40:20.944Z,65.20
2022-09-05T01:43:23.801Z,64.99
2022-09-05T01:49:34.713Z,65.39
2022-09-05T01:52:27.594Z,65.78
2022-09-05T01:55:16.057Z,65.17
2022-09-05T02:01:47.178Z,65.58
2022-09-05T02:04:50.029Z,65.68
2022-09-05T02:08:21.956Z,65.65
2022-09-05T02:11:11.185Z,65.72
2022-09-05T02:13:48.713Z,65.97
2022-09-05T02:16:32.780Z,65.71
2022-09-05T02:19:10.472Z,65.36
2022-09-05T02:22:07.531Z,65.95
2022-09-05T02:26:00.462Z,65.27
2022-09-05T02:28:18.617Z,66.06
2022-09-05T02:31:21.129Z,65.48
2022-09-05T02:34:01.867Z,65.63
2022-09-05T02:41:45.613Z,66.00
2022-09-05T02:45:08.134Z,65.76
2022-09-05T02:45:12.928Z,65.81
2022-09-05T02:46:46.615Z,65.78
2022-09-05T02:52:05.923Z,66.05
2022-09-05T02:57:29.793Z,65.65
2022-09-05T02:57:33.269Z,66.05
2022-09-05T02:58:21.918Z,66.02
2022-09-05T03:01:04.260Z,65.88
2022-09-05T03:04:21.477Z,66.26
2022-09-05T03:07:09.989Z,66.47
2022-09-05T03:09:50.345Z,65.98
2022-09-05T03:13:04.493Z,66.16
2022-09-05T03:16:04.668Z,66.43
2022-09-05T03:19:22.578Z,66.19
2022-09-05T03:22:24.428Z,65.50
2022-09-05T03:32:48.837Z,65.74
2022-09-05T03:36:09.319Z,65.81
2022-09-05T03:38:36.465Z,65.80
2022-09-05T03:42:02.452Z,65.79
2022-09-05T03:48:24.669Z,65.52
2022-09-05T03:56:32.382Z,65.52
2022-09-05T03:57:24.819Z,65.42
2022-09-05T03:58:55.988Z,65.23
2022-09-05T04:03:26.972Z,65.23
2022-09-05T04:08:17.420Z,65.13
2022-09-05T04:08:24.732Z,65.68
2022-09-05T04:10:21.019Z,65.68
2022-09-05T04:12:51.979Z,65.95
2022-09-05T04:15:29.267Z,66.11
2022-09-05T04:18:04.218Z,66.17
2022-09-05T04:20:43.539Z,65.95
2022-09-05T04:27:20.224Z,66.53
2022-09-05T04:30:14.580Z,65.88
2022-09-05T04:33:36.038Z,65.54
2022-09-05T04:36:58.129Z,65.79
2022-09-05T04:39:33.393Z,65.96
2022-09-05T04:42:06.918Z,65.91
2022-09-05T04:44:47.986Z,65.91
2022-09-05T04:47:23.067Z,66.52
2022-09-05T04:50:08.668Z,66.70
2022-09-05T04:53:15.372Z,66.65
2022-09-05T04:55:50.667Z,66.58
2022-09-05T05:00:36.841Z,66.33
2022-09-05T05:06:01.061Z,66.60
2022-09-05T05:06:18.703Z,66.98
2022-09-05T05:08:27.940Z,66.62
2022-09-05T05:17:54.475Z,66.55
2022-09-05T05:18:13.400Z,66.81
2022-09-05T05:18:14.521Z,67.14
2022-09-05T05:20:42.528Z,66.85
2022-09-05T05:23:10.003Z,67.20
2022-09-05T05:25:51.508Z,66.83
2022-09-05T05:28:30.481Z,66.47
2022-09-05T05:31:34.228Z,66.67
2022-09-05T05:34:23.888Z,66.86
2022-09-05T05:40:11.087Z,67.18
2022-09-05T05:42:40.795Z,66.94
2022-09-05T05:45:21.059Z,67.00
2022-09-05T05:51:03.227Z,66.97
2022-09-05T05:54:19.258Z,66.71
2022-09-05T05:57:16.997Z,66.78
2022-09-05T06:00:29.041Z,66.22
2022-09-05T06:03:26.352Z,65.85
2022-09-05T06:06:42.106Z,66.37
2022-09-05T06:14:50.283Z,66.45
2022-09-05T06:15:05.773Z,66.17
2022-09-05T06:16:18.634Z,65.87
2022-09-05T06:19:37.575Z,65.68
2022-09-05T06:23:39.808Z,65.44
2022-09-05T06:26:25.147Z,65.83
2022-09-05T06:29:16.071Z,65.70
2022-09-05T06:32:26.492Z,65.67
2022-09-05T06:35:20.199Z,65.40
2022-09-05T06:38:06.681Z,65.52
2022-09-05T06:40:52.728Z,65.11
2022-09-05T06:43:50.595Z,65.11
2022-09-05T06:47:22.451Z,64.84
2022-09-05T06:49:45.422Z,64.57
2022-09-05T06:52:30.267Z,64.53
2022-09-05T06:55:23.473Z,64.62
2022-09-05T06:58:05.313Z,64.57
2022-09-05T07:00:49.045Z,64.27
2022-09-05T07:03:52.069Z,64.01
2022-09-05T07:07:01.280Z,63.97
2022-09-05T07:09:43.870Z,64.18
2022-09-05T07:12:16.685Z,64.71
2022-09-05T07:15:08.685Z,64.13
2022-09-05T07:18:13.498Z,63.93
2022-09-05T07:21:16.520Z,64.06
2022-09-05T07:24:44.175Z,63.99
2022-09-05T07:28:29.834Z,63.92
2022-09-05T07:30:48.373Z,64.15
2022-09-05T07:33:24.877Z,64.24
2022-09-05T07:35:55.397Z,64.29
2022-09-05T07:38:38.153Z,64.26
2022-09-05T07:41:30.237Z,64.15
2022-09-05T07:44:13.609Z,64.11
2022-09-05T07:46:42.422Z,63.98
2022-09-05T07:49:23.680Z,63.65
2022-09-05T07:56:49.819Z,63.39
2022-09-05T07:56:52.808Z,63.52
2022-09-05T07:57:51.901Z,62.77
2022-09-05T08:00:26.951Z,62.91
2022-09-05T08:03:08.579Z,62.22
2022-09-05T08:05:47.125Z,62.04
2022-09-05T08:08:19.759Z,62.71
2022-09-05T08:11:24.066Z,62.65
2022-09-05T08:14:43.694Z,61.80
2022-09-05T08:17:44.768Z,62.49
2022-09-05T08:20:31.691Z,61.61
2022-09-05T08:23:13.027Z,60.67
2022-09-05T08:26:00.043Z,60.89
2022-09-05T08:32:05.400Z,60.58
2022-09-05T08:34:51.167Z,60.29
2022-09-05T08:37:27.188Z,59.83
2022-09-05T08:40:10.876Z,60.24
2022-09-05T08:46:36.184Z,59.33
2022-09-05T08:46:43.073Z,58.88
2022-09-05T08:49:36.906Z,59.28
2022-09-05T08:52:34.650Z,59.59
2022-09-05T08:55:37.979Z,59.84
2022-09-05T09:01:48.899Z,59.49
2022-09-05T09:05:01.228Z,59.42
2022-09-05T09:07:51.478Z,59.20
2022-09-05T09:10:35.887Z,59.40
2022-09-05T09:13:11.037Z,59.14
2022-09-05T09:16:26.095Z,59.22
2022-09-05T09:19:01.746Z,59.13
2022-09-05T09:21:58.208Z,59.18
2022-09-05T09:24:37.691Z,58.51
2022-09-05T09:27:40.136Z,58.07
2022-09-05T09:30:19.499Z,58.46
2022-09-05T09:32:49.822Z,58.13
2022-09-05T09:35:42.535Z,57.62
2022-09-05T09:38:42.837Z,57.94
2022-09-05T09:41:50.798Z,57.51
2022-09-05T09:44:39.786Z,58.07
2022-09-05T09:47:14.179Z,57.09
2022-09-05T09:50:06.626Z,57.22
2022-09-05T09:52:46.615Z,57.54
2022-09-05T09:55:57.332Z,57.10
2022-09-05T09:58:48.823Z,56.70
2022-09-05T10:01:38.598Z,57.38
2022-09-05T10:10:34.544Z,56.94
2022-09-05T10:10:49.404Z,57.00
2022-09-05T10:11:17.871Z,57.26
2022-09-05T10:13:43.403Z,55.98
2022-09-05T10:16:37.121Z,56.51
2022-09-05T10:23:00.623Z,55.82
2022-09-05T10:25:32.503Z,56.01
2022-09-05T10:28:27.467Z,55.08
2022-09-05T10:34:56.478Z,55.02
2022-09-05T10:35:17.073Z,55.44
2022-09-05T10:37:46.468Z,54.95
2022-09-05T10:40:20.950Z,55.84
2022-09-05T10:42:59.931Z,53.96
2022-09-05T10:45:57.551Z,55.42
2022-09-05T10:48:29.658Z,54.51
2022-09-05T10:51:09.665Z,54.38
2022-09-05T10:53:45.907Z,53.30
2022-09-05T10:56:28.592Z,53.35
2022-09-05T11:00:54.475Z,53.43
2022-09-05T11:02:34.935Z,53.14
2022-09-05T11:05:19.340Z,53.57
2022-09-05T11:07:52.612Z,51.22
2022-09-05T11:10:28.741Z,52.10
2022-09-05T11:13:35.952Z,52.22
2022-09-05T11:16:41.942Z,51.35
2022-09-05T11:19:27.975Z,52.48
2022-09-05T11:22:24.022Z,52.02
2022-09-05T11:25:00.342Z,51.96
2022-09-05T11:27:55.901Z,50.80
2022-09-05T11:30:38.127Z,51.17
2022-09-05T11:39:55.338Z,51.69
2022-09-05T11:39:59.004Z,52.41
2022-09-05T11:43:39.982Z,52.83
2022-09-05T11:46:46.970Z,53.40
2022-09-05T11:50:18.603Z,52.70
2022-09-05T11:53:31.174Z,53.35
2022-09-05T11:56:46.005Z,53.30
2022-09-05T11:59:44.893Z,54.29
2022-09-05T12:02:54.006Z,53.88
2022-09-05T12:05:59.899Z,53.58
2022-09-05T12:08:57.294Z,53.47
2022-09-05T12:11:52.122Z,54.04
2022-09-05T12:14:29.136Z,54.05
2022-09-05T12:17:06.502Z,54.04
2022-09-05T12:19:53.631Z,54.69
2022-09-05T12:22:43.282Z,54.83
2022-09-05T12:27:40.096Z,54.51
2022-09-05T12:29:33.736Z,54.69
2022-09-05T12:33:24.367Z,54.30
2022-09-05T12:36:12.539Z,54.30
2022-09-05T12:40:05.098Z,54.88
2022-09-05T12:41:44.543Z,55.22
2022-09-05T12:44:41.463Z,55.13
2022-09-05T12:47:21.120Z,55.22
2022-09-05T12:50:14.931Z,54.63
2022-09-05T12:53:15.311Z,54.44
2022-09-05T12:58:53.631Z,54.34
2022-09-05T13:03:09.723Z,53.91
2022-09-05T13:03:11.348Z,53.86
2022-09-05T13:05:27.034Z,53.70
2022-09-05T13:08:03.446Z,53.28
2022-09-05T13:14:47.371Z,52.92
2022-09-05T13:14:57.460Z,53.27
2022-09-05T13:17:01.241Z,52.96
2022-09-05T13:19:44.161Z,53.17
2022-09-05T13:22:16.459Z,53.13
2022-09-05T13:25:04.359Z,53.14
2022-09-05T13:27:40.727Z,53.02
2022-09-05T13:31:54.733Z,53.15
2022-09-05T13:38:04.623Z,52.98
2022-09-05T13:38:11.131Z,53.22
2022-09-05T13:39:16.338Z,52.90
2022-09-05T13:42:04.266Z,53.10
2022-09-05T13:44:46.683Z,52.74
2022-09-05T13:47:37.385Z,53.61
2022-09-05T13:50:11.565Z,53.56
2022-09-05T13:56:24.031Z,52.58
2022-09-05T13:59:01.523Z,53.55
2022-09-05T14:01:37.892Z,53.46
2022-09-05T14:07:44.609Z,53.50
2022-09-05T14:10:50.144Z,53.11
2022-09-05T14:13:47.473Z,53.19
2022-09-05T14:16:26.476Z,53.28
2022-09-05T14:19:15.024Z,53.17
2022-09-05T14:21:44.897Z,53.24
2022-09-05T14:24:16.941Z,52.36
2022-09-05T14:27:31.936Z,52.18
2022-09-05T14:31:01.051Z,52.54
2022-09-05T14:37:41.056Z,52.59
2022-09-05T14:37:49.519Z,52.43
2022-09-05T14:40:39.541Z,52.15
2022-09-05T14:43:45.261Z,52.32
2022-09-05T14:47:32.424Z,52.76
2022-09-05T14:50:29.381Z,52.28
2022-09-05T14:56:50.155Z,52.87
2022-09-05T15:07:22.881Z,53.56
2022-09-05T15:14:13.506Z,52.31
2022-09-05T15:20:06.671Z,53.19
2022-09-05T15:22:42.068Z,53.24
2022-09-05T15:25:22.847Z,54.32
2022-09-05T15:27:50.959Z,53.63
2022-09-05T15:30:34.802Z,53.84
2022-09-05T15:33:25.604Z,54.58
2022-09-05T15:36:03.531Z,55.10
2022-09-05T15:38:54.993Z,54.97
2022-09-05T15:41:49.353Z,55.92
2022-09-05T15:44:47.926Z,55.79
2022-09-05T15:47:29.570Z,55.86
2022-09-05T15:49:59.534Z,57.16
2022-09-05T15:52:45.998Z,56.67
2022-09-05T15:55:19.336Z,57.24
2022-09-05T15:58:05.713Z,57.88
2022-09-05T16:00:43.059Z,57.99
2022-09-05T16:04:12.824Z,58.26
2022-09-05T16:10:36.100Z,58.90
2022-09-05T16:10:39.977Z,58.85
2022-09-05T16:16:22.846Z,59.96
2022-09-05T16:23:29.889Z,59.79
2022-09-05T16:23:30.449Z,60.54
2022-09-05T16:24:59.674Z,60.52
2022-09-05T16:27:44.663Z,61.59
2022-09-05T16:30:20.793Z,61.80
2022-09-05T16:32:51.173Z,61.73
2022-09-05T16:35:24.887Z,61.88
2022-09-05T16:41:45.998Z,61.55
2022-09-05T16:44:20.651Z,61.95
2022-09-05T16:47:06.161Z,61.65
2022-09-05T16:50:16.719Z,62.28
2022-09-05T16:52:56.136Z,62.64
2022-09-05T16:55:43.242Z,62.22
2022-09-05T16:58:21.353Z,62.75
2022-09-05T17:00:55.485Z,62.77
2022-09-05T17:03:41.018Z,63.49
2022-09-05T17:06:25.539Z,63.60
2022-09-05T17:09:13.356Z,63.51
2022-09-05T17:12:00.177Z,63.28
2022-09-05T17:14:40.229Z,62.97
2022-09-05T17:18:04.784Z,63.50
2022-09-05T17:20:14.477Z,63.30
2022-09-05T17:26:42.774Z,63.13
2022-09-05T17:29:31.937Z,64.31
2022-09-05T17:32:34.701Z,63.82
2022-09-05T17:35:22.084Z,63.32
2022-09-05T17:38:11.741Z,63.59
2022-09-05T17:41:10.537Z,63.14
2022-09-05T17:43:43.130Z,63.44
2022-09-05T17:46:34.286Z,63.96
2022-09-05T17:49:42.967Z,63.30
2022-09-05T17:52:18.125Z,63.46
2022-09-05T17:54:52.536Z,63.57
2022-09-05T17:57:26.827Z,63.44
2022-09-05T17:59:55.833Z,63.08
2022-09-05T18:02:23.939Z,63.22
2022-09-05T18:05:01.656Z,62.71
2022-09-05T18:07:58.033Z,62.72
2022-09-05T18:11:01.249Z,63.30
2022-09-05T18:13:54.398Z,63.28
2022-09-05T18:16:57.010Z,62.98
2022-09-05T18:19:58.264Z,62.51
2022-09-05T18:22:35.547Z,62.65
2022-09-05T18:25:30.729Z,62.80
2022-09-05T18:28:19.281Z,62.22
2022-09-05T18:30:54.761Z,61.94
2022-09-05T18:33:54.093Z,62.75
2022-09-05T18:36:25.876Z,62.86
2022-09-05T18:39:25.789Z,63.10
2022-09-05T18:42:33.924Z,62.89
2022-09-05T18:45:15.360Z,62.44
2022-09-05T18:50:46.906Z,62.65
2022-09-05T18:53:25.760Z,62.67
2022-09-05T18:56:20.569Z,63.13
2022-09-05T18:59:10.416Z,63.25
2022-09-05T19:04:56.359Z,62.86
2022-09-05T19:07:50.123Z,63.15
2022-09-05T19:10:36.712Z,62.47
2022-09-05T19:13:19.529Z,62.73
2022-09-05T19:16:18.174Z,62.89
2022-09-05T19:19:16.286Z,63.12
2022-09-05T19:22:03.459Z,62.97
2022-09-05T19:25:20.178Z,62.52
2022-09-05T19:35:14.121Z,62.94
2022-09-05T19:37:03.294Z,62.62
2022-09-05T19:37:06.456Z,62.63
2022-09-05T19:37:41.173Z,62.52
2022-09-05T19:47:20.590Z,62.26
2022-09-05T19:47:47.076Z,62.33
2022-09-05T19:49:22.230Z,62.11
2022-09-05T19:51:51.513Z,62.40
2022-09-05T19:54:45.186Z,62.02
2022-09-05T20:00:20.458Z,62.15
2022-09-05T20:02:53.507Z,62.26
2022-09-05T20:05:22.605Z,62.46
2022-09-05T20:08:28.203Z,62.33
2022-09-05T20:11:06.951Z,62.71
2022-09-05T20:13:34.762Z,62.95
2022-09-05T20:24:39.730Z,63.15
2022-09-05T20:27:08.073Z,63.65
2022-09-05T20:30:03.775Z,63.73
2022-09-05T20:32:40.495Z,63.81
2022-09-05T20:38:42.159Z,63.42
2022-09-05T20:43:14.514Z,63.89
2022-09-05T20:43:30.609Z,63.63
2022-09-05T20:44:24.925Z,63.47
2022-09-05T20:54:10.689Z,63.98
2022-09-05T20:54:13.918Z,63.52
2022-09-05T20:54:19.415Z,64.01
2022-09-05T20:56:01.455Z,64.08
2022-09-05T20:58:31.486Z,64.65
2022-09-05T21:07:22.076Z,64.48
2022-09-05T21:10:01.401Z,64.29
2022-09-05T21:12:42.246Z,64.32
2022-09-05T21:15:53.107Z,64.19
2022-09-05T21:18:33.632Z,63.97
2022-09-05T21:21:28.887Z,64.01
2022-09-05T21:24:16.763Z,63.98
2022-09-05T21:26:50.914Z,63.74
2022-09-05T21:29:32.404Z,64.28
2022-09-05T21:32:11.206Z,64.02
2022-09-05T21:35:34.517Z,63.74
2022-09-05T21:37:58.905Z,63.65
2022-09-05T21:46:42.877Z,63.36
2022-09-05T21:47:46.044Z,63.27
2022-09-05T21:49:21.186Z,63.40
2022-09-05T21:51:50.404Z,63.11
2022-09-05T21:59:22.285Z,63.10
2022-09-05T22:00:39.213Z,62.63
2022-09-05T22:03:14.771Z,62.55
2022-09-05T22:05:46.723Z,62.37
2022-09-05T22:08:14.834Z,62.46
2022-09-05T22:11:10.730Z,62.28
2022-09-05T22:13:42.197Z,62.15
2022-09-05T22:16:15.448Z,62.46
2022-09-05T22:18:45.389Z,62.46
2022-09-05T22:21:32.002Z,62.33
2022-09-05T22:24:34.254Z,62.38
2022-09-05T22:27:11.163Z,62.10
2022-09-05T22:29:47.320Z,62.14
2022-09-05T22:32:33.982Z,62.36
2022-09-05T22:38:17.926Z,62.23
2022-09-05T22:41:13.165Z,62.13
2022-09-05T22:43:42.934Z,62.44
2022-09-05T22:46:10.606Z,62.61
2022-09-05T22:48:38.833Z,62.93
2022-09-05T22:51:09.728Z,62.91
2022-09-05T22:53:36.649Z,62.82
2022-09-05T22:56:07.817Z,63.25
2022-09-05T22:58:43.979Z,62.81
2022-09-05T23:01:12.785Z,62.61
2022-09-05T23:03:44.658Z,63.14
2022-09-05T23:06:13.220Z,63.31
2022-09-05T23:08:40.603Z,63.60
2022-09-05T23:11:19.994Z,64.19
2022-09-05T23:13:48.697Z,63.28
2022-09-05T23:16:41.720Z,63.35
2022-09-05T23:19:08.663Z,64.09
2022-09-05T23:21:36.570Z,64.07
2022-09-05T23:24:04.765Z,64.11
2022-09-05T23:26:32.577Z,64.51
2022-09-05T23:29:00.701Z,65.03
2022-09-05T23:34:20.689Z,64.36
2022-09-05T23:36:48.543Z,64.75
2022-09-05T23:39:16.588Z,65.02
2022-09-05T23:41:44.569Z,64.88
2022-09-05T23:44:37.600Z,65.10
2022-09-05T23:47:17.777Z,65.36
2022-09-05T23:50:12.699Z,64.94
2022-09-05T23:52:50.243Z,64.94
2022-09-05T23:55:24.675Z,65.23
2022-09-05T23:57:58.122Z,64.99
